KILG/ILG METAR and TAF weather

Enter ICAO airport designator
Station Type Date Time Source
KILG METAR 2019/10/23 13:51 UTC NOAA

KILG 231351Z AUTO 27005KT 10SM CLR 14/11 A3002 RMK AO2 SLP164 T01440111 $


Station Type Date Time Source
KILG Decoded METAR 2019/10/23 13:51 UTC NOAA

WILMINGTON NEW CASTLE CO, DE, United States (KILG) 39-40N 075-36W 28M
Oct 23, 2019 - 09:51 AM EDT / 2019.10.23 1351 UTC
Wind: from the W (270 degrees) at 6 MPH (5 KT):0
Visibility: 10 mile(s):0
Sky conditions: clear
Temperature: 57.9 F (14.4 C)
Dew Point: 52.0 F (11.1 C)
Relative Humidity: 80%
Pressure (altimeter): 30.02 in. Hg (1016 hPa)
ob: KILG 231351Z AUTO 27005KT 10SM CLR 14/11 A3002 RMK AO2 SLP164 T01440111
cycle: 14

Station Type Date Time Source
KILG TAF 2019/10/23 12:22 UTC NOAA

TAF KILG 231120Z 2312/2412 29008KT P6SM FEW100
FM231500 29012G20KT P6SM FEW050
FM232200 28006KT P6SM SKC
FM240200 VRB03KT P6SM SKC

Example: see airport list